createdAt,value
2023-02-03T00:00:52.667Z,8.80
2023-02-03T00:03:20.737Z,8.80
2023-02-03T00:05:48.936Z,9.10
2023-02-03T00:08:18.482Z,8.90
2023-02-03T00:10:48.336Z,8.80
2023-02-03T00:13:16.809Z,8.90
2023-02-03T00:15:44.812Z,8.80
2023-02-03T00:18:13.060Z,8.90
2023-02-03T00:20:41.041Z,9.50
2023-02-03T00:23:11.112Z,8.80
2023-02-03T00:25:39.629Z,8.80
2023-02-03T00:28:08.999Z,8.80
2023-02-03T00:30:38.004Z,9.30
2023-02-03T00:33:06.220Z,8.80
2023-02-03T00:35:34.237Z,9.10
2023-02-03T00:38:02.195Z,8.80
2023-02-03T00:40:30.388Z,8.90
2023-02-03T00:42:58.572Z,8.80
2023-02-03T00:45:27.936Z,8.80
2023-02-03T00:47:56.031Z,9.70
2023-02-03T00:50:24.205Z,8.80
2023-02-03T00:52:52.411Z,8.80
2023-02-03T00:55:20.423Z,8.90
2023-02-03T00:57:48.376Z,9.30
2023-02-03T01:00:17.375Z,9.30
2023-02-03T01:02:46.810Z,8.80
2023-02-03T01:05:14.769Z,8.90
2023-02-03T01:07:42.790Z,9.10
2023-02-03T01:10:11.839Z,8.90
2023-02-03T01:12:39.828Z,8.90
2023-02-03T01:15:08.600Z,9.00
2023-02-03T01:17:36.576Z,8.90
2023-02-03T01:20:06.673Z,9.00
2023-02-03T01:22:34.655Z,8.90
2023-02-03T01:25:02.625Z,8.80
2023-02-03T01:27:30.631Z,9.20
2023-02-03T01:29:58.643Z,9.10
2023-02-03T01:32:26.733Z,9.00
2023-02-03T01:34:54.734Z,9.00
2023-02-03T01:37:24.121Z,9.00
2023-02-03T01:39:52.111Z,9.00
2023-02-03T01:42:20.083Z,9.20
2023-02-03T01:44:51.200Z,9.10
2023-02-03T01:47:29.121Z,9.20
2023-02-03T01:50:03.948Z,9.30
2023-02-03T01:52:34.504Z,9.50
2023-02-03T01:55:06.718Z,10.20
2023-02-03T01:57:37.757Z,9.30
2023-02-03T02:00:07.924Z,9.30
2023-02-03T02:02:36.540Z,9.30
2023-02-03T02:05:07.305Z,9.30
2023-02-03T02:07:38.759Z,9.30
2023-02-03T02:10:07.770Z,9.30
2023-02-03T02:12:35.801Z,9.30
2023-02-03T02:15:04.697Z,9.30
2023-02-03T02:17:49.829Z,9.50
2023-02-03T02:20:50.941Z,9.20
2023-02-03T02:23:52.720Z,9.30
2023-02-03T02:26:58.677Z,9.30
2023-02-03T02:30:17.050Z,9.30
2023-02-03T02:33:05.348Z,9.20
2023-02-03T02:35:49.500Z,9.40
2023-02-03T02:38:26.942Z,9.50
2023-02-03T02:41:03.961Z,9.20
2023-02-03T02:43:42.200Z,9.20
2023-02-03T02:46:14.708Z,9.30
2023-02-03T02:48:49.037Z,9.30
2023-02-03T02:51:18.109Z,9.50
2023-02-03T02:53:50.465Z,9.30
2023-02-03T02:56:19.820Z,9.30
2023-02-03T02:58:50.707Z,9.40
2023-02-03T03:01:19.232Z,9.40
2023-02-03T03:03:49.302Z,9.40
2023-02-03T03:06:23.532Z,9.70
2023-02-03T03:08:57.188Z,9.70
2023-02-03T03:11:27.933Z,9.40
2023-02-03T03:13:57.503Z,9.50
2023-02-03T03:16:28.550Z,9.40
2023-02-03T03:19:02.406Z,9.40
2023-02-03T03:21:37.220Z,10.10
2023-02-03T03:24:09.053Z,9.40
2023-02-03T03:26:42.826Z,9.50
2023-02-03T03:29:16.338Z,10.20
2023-02-03T03:31:45.509Z,9.60
2023-02-03T03:34:15.837Z,9.50
2023-02-03T03:36:47.223Z,9.60
2023-02-03T03:39:23.390Z,9.40
2023-02-03T03:41:59.025Z,10.20
2023-02-03T03:44:31.953Z,9.40
2023-02-03T03:47:07.875Z,9.40
2023-02-03T03:49:38.540Z,9.50
2023-02-03T03:52:10.563Z,9.40
2023-02-03T03:54:40.563Z,9.70
2023-02-03T03:57:15.471Z,9.60
2023-02-03T03:59:46.846Z,9.40
2023-02-03T04:02:15.683Z,9.40
2023-02-03T04:04:47.065Z,9.40
2023-02-03T04:07:15.793Z,9.40
2023-02-03T04:09:44.043Z,9.40
2023-02-03T04:12:23.422Z,9.80
2023-02-03T04:14:51.387Z,9.40
2023-02-03T04:17:20.164Z,9.60
2023-02-03T04:19:49.971Z,10.60
2023-02-03T04:22:17.913Z,9.40
2023-02-03T04:24:45.879Z,9.40
2023-02-03T04:27:13.839Z,9.90
2023-02-03T04:29:41.803Z,10.50
2023-02-03T04:32:09.761Z,9.90
2023-02-03T04:34:37.762Z,9.40
2023-02-03T04:37:07.052Z,9.40
2023-02-03T04:39:35.021Z,9.40
2023-02-03T04:42:02.990Z,9.40
2023-02-03T04:44:31.064Z,10.00
2023-02-03T04:46:59.070Z,9.40
2023-02-03T04:49:27.049Z,9.40
2023-02-03T04:51:54.993Z,9.30
2023-02-03T04:54:24.519Z,9.50
2023-02-03T04:56:52.535Z,9.40
2023-02-03T04:59:20.611Z,9.40
2023-02-03T05:01:48.586Z,9.40
2023-02-03T05:04:16.689Z,9.30
2023-02-03T05:06:44.736Z,9.30
2023-02-03T05:09:13.045Z,9.90
2023-02-03T05:11:42.452Z,9.40
2023-02-03T05:14:10.824Z,9.40
2023-02-03T05:16:38.962Z,9.30
2023-02-03T05:19:07.590Z,9.30
2023-02-03T05:21:36.081Z,9.30
2023-02-03T05:24:07.008Z,9.30
2023-02-03T05:26:36.191Z,9.30
2023-02-03T05:29:06.019Z,9.30
2023-02-03T05:31:34.984Z,9.30
2023-02-03T05:34:03.518Z,9.30
2023-02-03T05:36:31.872Z,9.30
2023-02-03T05:39:00.382Z,9.20
2023-02-03T05:41:46.517Z,10.00
2023-02-03T05:44:16.364Z,9.30
2023-02-03T05:46:45.023Z,9.40
2023-02-03T05:49:13.467Z,9.30
2023-02-03T05:51:42.708Z,9.20
2023-02-03T05:54:10.869Z,9.30
2023-02-03T05:56:39.447Z,9.30
2023-02-03T05:59:08.070Z,9.30
2023-02-03T06:01:37.738Z,9.30
2023-02-03T06:04:06.581Z,9.50
2023-02-03T06:06:34.795Z,9.30
2023-02-03T06:09:03.984Z,9.30
2023-02-03T06:11:32.027Z,9.30
2023-02-03T06:14:00.815Z,9.20
2023-02-03T06:16:29.923Z,9.20
2023-02-03T06:19:00.839Z,9.30
2023-02-03T06:21:29.569Z,9.20
2023-02-03T06:23:57.623Z,9.20
2023-02-03T06:26:26.122Z,9.30
2023-02-03T06:28:54.251Z,9.10
2023-02-03T06:31:22.444Z,9.10
2023-02-03T06:33:50.575Z,9.20
2023-02-03T06:36:19.912Z,9.20
2023-02-03T06:38:47.905Z,9.10
2023-02-03T06:41:16.110Z,9.50
2023-02-03T06:43:44.121Z,9.10
2023-02-03T06:46:12.593Z,9.20
2023-02-03T06:48:40.669Z,9.10
2023-02-03T06:51:08.656Z,9.20
2023-02-03T06:53:38.028Z,9.20
2023-02-03T06:56:06.596Z,9.20
2023-02-03T06:58:34.571Z,9.20
2023-02-03T07:01:02.560Z,9.20
2023-02-03T07:03:30.553Z,9.40
2023-02-03T07:05:58.537Z,9.40
2023-02-03T07:08:26.579Z,9.20
2023-02-03T07:10:56.490Z,9.40
2023-02-03T07:13:24.526Z,9.30
2023-02-03T07:15:52.534Z,9.80
2023-02-03T07:18:45.941Z,9.40
2023-02-03T07:21:12.833Z,9.60
2023-02-03T07:23:40.987Z,9.20
2023-02-03T07:26:12.118Z,9.30
2023-02-03T07:28:40.106Z,9.40
2023-02-03T07:31:10.330Z,9.50
2023-02-03T07:33:38.528Z,9.50
2023-02-03T07:36:08.192Z,9.30
2023-02-03T07:38:37.993Z,9.40
2023-02-03T07:41:06.531Z,9.60
2023-02-03T07:43:35.926Z,9.40
2023-02-03T07:46:03.985Z,9.50
2023-02-03T07:48:31.934Z,9.40
2023-02-03T07:50:59.927Z,9.50
2023-02-03T07:53:27.955Z,9.80
2023-02-03T07:55:55.986Z,9.60
2023-02-03T07:58:24.009Z,9.90
2023-02-03T08:00:53.534Z,9.40
2023-02-03T08:03:21.649Z,9.50
2023-02-03T08:05:50.090Z,9.50
2023-02-03T08:08:18.279Z,9.50
2023-02-03T08:10:46.259Z,9.50
2023-02-03T08:13:14.532Z,9.50
2023-02-03T08:15:42.516Z,9.60
2023-02-03T08:18:12.661Z,9.50
2023-02-03T08:20:40.985Z,10.00
2023-02-03T08:23:08.990Z,9.50
2023-02-03T08:25:37.037Z,9.60
2023-02-03T08:28:05.474Z,9.60
2023-02-03T08:30:33.537Z,9.60
2023-02-03T08:33:01.570Z,10.20
2023-02-03T08:35:30.972Z,9.60
2023-02-03T08:37:59.019Z,9.60
2023-02-03T08:40:27.274Z,9.60
2023-02-03T08:42:55.884Z,9.80
2023-02-03T08:45:23.876Z,10.50
2023-02-03T08:47:51.879Z,10.30
2023-02-03T08:50:19.953Z,10.30
2023-02-03T08:52:49.381Z,10.30
2023-02-03T08:55:17.715Z,10.10
2023-02-03T08:57:45.990Z,9.60
2023-02-03T09:00:15.215Z,9.60
2023-02-03T09:02:43.224Z,9.60
2023-02-03T09:05:11.915Z,9.70
2023-02-03T09:07:40.094Z,9.60
2023-02-03T09:10:10.446Z,9.90
2023-02-03T09:12:38.461Z,9.70
2023-02-03T09:15:07.099Z,9.70
2023-02-03T09:17:35.119Z,9.70
2023-02-03T09:20:03.146Z,9.70
2023-02-03T09:22:31.224Z,10.50
2023-02-03T09:24:59.348Z,9.70
2023-02-03T09:27:28.930Z,10.10
2023-02-03T09:29:58.529Z,9.70
2023-02-03T09:32:26.652Z,9.70
2023-02-03T09:34:54.731Z,9.70
2023-02-03T09:37:23.017Z,9.90
2023-02-03T09:39:51.314Z,9.80
2023-02-03T09:42:37.741Z,9.80
2023-02-03T09:45:19.132Z,9.80
2023-02-03T09:47:53.992Z,9.90
2023-02-03T09:50:24.955Z,9.90
2023-02-03T09:52:54.041Z,9.90
2023-02-03T09:55:29.096Z,9.90
2023-02-03T09:58:04.545Z,10.00
2023-02-03T10:00:36.649Z,10.00
2023-02-03T10:03:09.756Z,10.00
2023-02-03T10:06:07.813Z,10.10
2023-02-03T10:08:53.414Z,10.10
2023-02-03T10:11:37.057Z,10.10
2023-02-03T10:14:24.933Z,10.20
2023-02-03T10:17:04.520Z,10.20
2023-02-03T10:19:53.607Z,10.30
2023-02-03T10:22:26.149Z,10.40
2023-02-03T10:24:58.913Z,10.30
2023-02-03T10:27:29.205Z,10.30
2023-02-03T10:30:04.469Z,10.40
2023-02-03T10:32:33.750Z,10.40
2023-02-03T10:35:03.078Z,10.40
2023-02-03T10:37:34.193Z,10.40
2023-02-03T10:40:03.363Z,10.50
2023-02-03T10:42:47.372Z,11.40
2023-02-03T10:45:17.256Z,10.50
2023-02-03T10:47:49.642Z,11.40
2023-02-03T10:50:18.376Z,10.50
2023-02-03T10:52:46.543Z,10.60
2023-02-03T10:55:31.190Z,10.60
2023-02-03T10:58:07.557Z,10.60
2023-02-03T11:00:37.092Z,10.60
2023-02-03T11:03:09.925Z,10.60
2023-02-03T11:05:37.924Z,10.70
2023-02-03T11:08:07.664Z,10.80
2023-02-03T11:10:37.814Z,10.70
2023-02-03T11:13:20.341Z,10.70
2023-02-03T11:15:57.041Z,10.70
2023-02-03T11:18:48.323Z,10.70
2023-02-03T11:21:21.849Z,10.70
2023-02-03T11:24:11.024Z,10.70
2023-02-03T11:26:44.591Z,10.80
2023-02-03T11:29:19.580Z,10.80
2023-02-03T11:31:51.648Z,10.80
2023-02-03T11:34:24.269Z,11.30
2023-02-03T11:36:52.361Z,10.90
2023-02-03T11:39:25.400Z,10.80
2023-02-03T11:41:53.693Z,10.90
2023-02-03T11:44:26.171Z,10.80
2023-02-03T11:46:58.730Z,11.00
2023-02-03T11:49:50.732Z,11.00
2023-02-03T11:52:46.081Z,10.90
2023-02-03T11:55:22.877Z,11.60
2023-02-03T11:58:04.887Z,10.80
2023-02-03T12:00:39.795Z,11.50
2023-02-03T12:03:37.688Z,10.80
2023-02-03T12:06:24.262Z,10.90
2023-02-03T12:09:12.750Z,10.90
2023-02-03T12:12:02.133Z,10.90
2023-02-03T12:14:43.962Z,10.90
2023-02-03T12:17:44.595Z,10.90
2023-02-03T12:20:27.457Z,10.90
2023-02-03T12:23:05.055Z,10.90
2023-02-03T12:25:44.919Z,11.20
2023-02-03T12:28:33.636Z,10.90
2023-02-03T12:31:09.940Z,11.30
2023-02-03T12:33:44.559Z,10.90
2023-02-03T12:36:19.931Z,10.90
2023-02-03T12:38:52.884Z,11.00
2023-02-03T12:41:26.828Z,11.00
2023-02-03T12:43:59.745Z,11.00
2023-02-03T12:46:31.084Z,10.90
2023-02-03T12:49:04.260Z,11.00
2023-02-03T12:51:40.263Z,11.00
2023-02-03T12:54:16.361Z,11.00
2023-02-03T12:56:45.772Z,11.00
2023-02-03T12:59:19.193Z,11.00
2023-02-03T13:01:50.569Z,11.00
2023-02-03T13:04:29.619Z,10.90
2023-02-03T13:07:08.025Z,10.90
2023-02-03T13:09:42.630Z,10.80
2023-02-03T13:12:14.838Z,10.80
2023-02-03T13:14:47.863Z,10.80
2023-02-03T13:17:20.493Z,10.90
2023-02-03T13:19:51.050Z,10.80
2023-02-03T13:22:23.866Z,11.00
2023-02-03T13:24:57.966Z,10.80
2023-02-03T13:27:41.156Z,10.80
2023-02-03T13:30:26.181Z,10.80
2023-02-03T13:33:19.309Z,10.80
2023-02-03T13:36:00.555Z,11.20
2023-02-03T13:38:51.887Z,10.70
2023-02-03T13:41:28.197Z,10.70
2023-02-03T13:43:58.649Z,10.70
2023-02-03T13:46:29.772Z,10.70
2023-02-03T13:49:00.565Z,10.70
2023-02-03T13:51:34.705Z,11.70
2023-02-03T13:54:07.755Z,10.70
2023-02-03T13:56:37.077Z,10.80
2023-02-03T13:59:07.242Z,10.70
2023-02-03T14:01:38.829Z,10.70
2023-02-03T14:04:09.104Z,10.80
2023-02-03T14:07:00.899Z,10.80
2023-02-03T14:09:47.367Z,10.80
2023-02-03T14:12:33.244Z,10.80
2023-02-03T14:15:17.524Z,10.90
2023-02-03T14:18:21.260Z,11.40
2023-02-03T14:21:13.390Z,10.80
2023-02-03T14:23:46.556Z,10.80
2023-02-03T14:26:34.971Z,10.90
2023-02-03T14:29:04.167Z,11.30
2023-02-03T14:31:32.956Z,10.90
2023-02-03T14:34:08.854Z,11.40
2023-02-03T14:36:54.994Z,10.80
2023-02-03T14:39:55.225Z,10.70
2023-02-03T14:42:47.078Z,10.80
2023-02-03T14:45:56.331Z,10.80
2023-02-03T14:48:49.254Z,10.70
2023-02-03T14:51:30.521Z,10.70
2023-02-03T14:54:25.023Z,10.70
2023-02-03T14:57:19.468Z,10.60
2023-02-03T14:59:51.045Z,10.60
2023-02-03T15:02:23.229Z,10.60
2023-02-03T15:04:51.377Z,10.60
2023-02-03T15:07:45.321Z,10.50
2023-02-03T15:10:18.938Z,10.50
2023-02-03T15:12:49.744Z,10.50
2023-02-03T15:15:24.822Z,10.50
2023-02-03T15:17:54.598Z,10.40
2023-02-03T15:20:38.794Z,10.50
2023-02-03T15:23:20.548Z,10.50
2023-02-03T15:25:55.226Z,10.40
2023-02-03T15:28:25.030Z,10.40
2023-02-03T15:30:59.838Z,10.50
2023-02-03T15:33:29.418Z,10.40
2023-02-03T15:36:01.982Z,10.40
2023-02-03T15:38:35.372Z,10.40
2023-02-03T15:41:05.022Z,10.40
2023-02-03T15:43:38.326Z,11.10
2023-02-03T15:46:17.776Z,10.30
2023-02-03T15:48:50.617Z,10.30
2023-02-03T15:51:24.060Z,10.60
2023-02-03T15:53:59.005Z,10.30
2023-02-03T15:56:37.787Z,10.60
2023-02-03T15:59:07.266Z,10.40
2023-02-03T16:01:36.702Z,10.70
2023-02-03T16:04:12.448Z,10.40
2023-02-03T16:06:44.925Z,10.20
2023-02-03T16:09:29.398Z,10.20
2023-02-03T16:12:06.923Z,10.20
2023-02-03T16:14:36.704Z,10.20
2023-02-03T16:17:06.878Z,10.30
2023-02-03T16:19:38.397Z,10.20
2023-02-03T16:22:21.565Z,10.40
2023-02-03T16:24:49.687Z,10.10
2023-02-03T16:27:22.445Z,10.00
2023-02-03T16:30:08.003Z,10.00
2023-02-03T16:32:54.911Z,10.00
2023-02-03T16:35:40.527Z,10.10
2023-02-03T16:38:29.984Z,10.00
2023-02-03T16:41:15.495Z,10.00
2023-02-03T16:44:01.122Z,10.00
2023-02-03T16:46:46.720Z,9.90
2023-02-03T16:49:33.358Z,10.40
2023-02-03T16:52:01.616Z,10.20
2023-02-03T16:54:29.729Z,9.90
2023-02-03T16:56:58.876Z,9.80
2023-02-03T16:59:27.028Z,9.90
2023-02-03T17:01:55.139Z,9.80
2023-02-03T17:04:24.585Z,10.70
2023-02-03T17:06:52.684Z,9.80
2023-02-03T17:09:22.142Z,9.80
2023-02-03T17:11:50.447Z,9.80
2023-02-03T17:14:18.702Z,10.50
2023-02-03T17:16:46.757Z,9.80
2023-02-03T17:19:14.849Z,9.80
2023-02-03T17:21:44.367Z,10.30
2023-02-03T17:24:13.409Z,9.70
2023-02-03T17:26:41.614Z,10.10
2023-02-03T17:29:11.565Z,9.70
2023-02-03T17:31:39.616Z,9.70
2023-02-03T17:34:08.046Z,9.70
2023-02-03T17:36:36.109Z,9.70
2023-02-03T17:55:34.417Z,9.70
2023-02-03T17:58:02.464Z,9.70
2023-02-03T18:00:30.857Z,9.70
2023-02-03T18:02:59.184Z,10.10
2023-02-03T18:05:28.834Z,10.10
2023-02-03T18:07:56.939Z,10.50
2023-02-03T18:10:26.271Z,9.70
2023-02-03T18:12:55.640Z,9.70
2023-02-03T18:15:23.722Z,9.70
2023-02-03T18:17:51.689Z,9.70
2023-02-03T18:20:19.927Z,9.70
2023-02-03T18:22:47.960Z,9.70
2023-02-03T18:25:17.355Z,9.70
2023-02-03T18:27:45.967Z,9.70
2023-02-03T18:30:19.471Z,9.70
2023-02-03T18:32:51.816Z,9.60
2023-02-03T18:35:19.753Z,9.60
2023-02-03T18:37:48.258Z,9.70
2023-02-03T18:40:16.765Z,9.70
2023-02-03T18:42:45.018Z,9.60
2023-02-03T18:45:13.493Z,9.70
2023-02-03T18:47:43.088Z,9.60
2023-02-03T18:50:11.474Z,9.60
2023-02-03T18:52:39.534Z,9.60
2023-02-03T18:55:09.190Z,9.60
2023-02-03T18:57:37.448Z,9.60
2023-02-03T19:00:06.232Z,9.60
2023-02-03T19:02:35.348Z,9.60
2023-02-03T19:05:05.405Z,9.50
2023-02-03T19:07:33.489Z,9.60
2023-02-03T19:10:01.904Z,9.50
2023-02-03T19:12:30.059Z,9.60
2023-02-03T19:14:58.084Z,9.50
2023-02-03T19:17:26.222Z,9.60
2023-02-03T19:19:54.324Z,9.60
2023-02-03T19:22:23.802Z,9.50
2023-02-03T19:24:51.912Z,9.50
2023-02-03T19:27:19.935Z,9.50
2023-02-03T19:29:47.942Z,9.50
2023-02-03T19:32:16.004Z,10.20
2023-02-03T19:34:44.109Z,9.50
2023-02-03T19:37:12.185Z,9.70
2023-02-03T19:39:41.837Z,10.30
2023-02-03T19:42:11.735Z,9.40
2023-02-03T19:44:39.847Z,9.40
2023-02-03T19:47:07.861Z,9.70
2023-02-03T19:49:36.241Z,9.40
2023-02-03T19:52:05.348Z,9.40
2023-02-03T19:54:33.337Z,9.40
2023-02-03T19:57:02.929Z,9.50
2023-02-03T19:59:32.005Z,9.40
2023-02-03T20:02:12.645Z,9.30
2023-02-03T20:04:42.042Z,9.40
2023-02-03T20:07:10.100Z,9.30
2023-02-03T20:09:38.326Z,9.30
2023-02-03T20:12:08.421Z,9.70
2023-02-03T20:14:36.798Z,9.20
2023-02-03T20:17:06.191Z,9.20
2023-02-03T20:19:34.458Z,9.70
2023-02-03T20:22:02.513Z,9.30
2023-02-03T20:24:30.543Z,9.10
2023-02-03T20:26:58.825Z,9.20
2023-02-03T20:29:28.530Z,9.10
2023-02-03T20:31:58.753Z,9.40
2023-02-03T20:34:27.492Z,9.40
2023-02-03T20:36:58.591Z,9.30
2023-02-03T20:39:27.732Z,9.00
2023-02-03T20:41:56.160Z,9.00
2023-02-03T20:44:24.560Z,8.90
2023-02-03T20:46:56.075Z,8.90
2023-02-03T20:49:24.471Z,8.90
2023-02-03T20:51:52.524Z,9.50
2023-02-03T20:54:22.502Z,8.70
2023-02-03T20:56:50.921Z,9.00
2023-02-03T20:59:20.346Z,8.90
2023-02-03T21:01:50.782Z,8.60
2023-02-03T21:04:38.475Z,8.60
2023-02-03T21:07:14.944Z,8.60
2023-02-03T21:09:43.436Z,8.60
2023-02-03T21:12:13.290Z,8.70
2023-02-03T21:14:44.542Z,8.60
2023-02-03T21:17:20.790Z,8.50
2023-02-03T21:19:50.590Z,8.70
2023-02-03T21:22:21.890Z,8.50
2023-02-03T21:24:52.557Z,8.40
2023-02-03T21:27:25.167Z,8.40
2023-02-03T21:29:56.616Z,8.40
2023-02-03T21:32:26.759Z,8.30
2023-02-03T21:34:56.204Z,8.30
2023-02-03T21:37:45.002Z,8.80
2023-02-03T21:40:23.979Z,8.40
2023-02-03T21:42:52.800Z,8.30
2023-02-03T21:45:34.374Z,8.30
2023-02-03T21:48:04.038Z,8.30
2023-02-03T21:50:34.952Z,8.30
2023-02-03T21:53:23.439Z,8.30
2023-02-03T21:55:51.590Z,8.30
2023-02-03T21:58:24.529Z,8.20
2023-02-03T22:00:53.991Z,8.70
2023-02-03T22:03:27.770Z,8.50
2023-02-03T22:06:16.318Z,8.20
2023-02-03T22:08:46.780Z,8.10
2023-02-03T22:11:15.938Z,8.10
2023-02-03T22:13:44.594Z,8.20
2023-02-03T22:16:14.407Z,8.60
2023-02-03T22:18:42.678Z,8.30
2023-02-03T22:21:12.656Z,8.60
2023-02-03T22:23:41.364Z,8.10
2023-02-03T22:26:10.962Z,8.10
2023-02-03T22:28:40.293Z,8.10
2023-02-03T22:31:09.248Z,8.30
2023-02-03T22:33:37.600Z,8.20
2023-02-03T22:36:07.427Z,8.10
2023-02-03T22:38:37.656Z,8.10
2023-02-03T22:41:06.437Z,8.20
2023-02-03T22:43:35.467Z,8.00
2023-02-03T22:46:04.894Z,8.00
2023-02-03T22:48:32.998Z,8.10
2023-02-03T22:51:01.423Z,8.10
2023-02-03T22:53:29.834Z,8.10
2023-02-03T22:55:59.264Z,8.00
2023-02-03T22:58:27.377Z,8.00
2023-02-03T23:00:55.527Z,8.20
2023-02-03T23:03:23.644Z,8.30
2023-02-03T23:05:51.710Z,8.00
2023-02-03T23:08:19.714Z,8.50
2023-02-03T23:10:48.342Z,8.00
2023-02-03T23:13:18.068Z,9.10
2023-02-03T23:15:46.387Z,8.30
2023-02-03T23:18:14.757Z,8.00
2023-02-03T23:20:42.997Z,8.00
2023-02-03T23:23:11.342Z,8.40
2023-02-03T23:25:39.702Z,8.00
2023-02-03T23:28:08.261Z,8.10
2023-02-03T23:30:38.102Z,8.00
2023-02-03T23:33:06.143Z,8.00
2023-02-03T23:35:45.223Z,8.20
2023-02-03T23:38:13.608Z,8.10
2023-02-03T23:40:41.661Z,8.00
2023-02-03T23:43:10.000Z,8.10
2023-02-03T23:45:39.478Z,8.00
2023-02-03T23:48:08.131Z,8.10
2023-02-03T23:50:36.356Z,8.90
2023-02-03T23:53:04.403Z,8.20
2023-02-03T23:55:32.580Z,8.10
2023-02-03T23:58:00.593Z,7.90
